sensor_id;sensor_type;location;lat;lon;timestamp;temperature;humidity
1992;DHT22;997;48.448;8.924;2023-05-07T03:03:18;14.30;99.90
1992;DHT22;997;48.448;8.924;2023-05-07T03:05:44;14.20;99.90
1992;DHT22;997;48.448;8.924;2023-05-07T03:08:09;14.00;99.90
1992;DHT22;997;48.448;8.924;2023-05-07T03:10:36;13.90;99.90
1992;DHT22;997;48.448;8.924;2023-05-07T03:13:02;13.80;99.90
1992;DHT22;997;48.448;8.924;2023-05-07T04:25:16;13.30;99.90
1992;DHT22;997;48.448;8.924;2023-05-07T04:32:52;13.40;99.90
1992;DHT22;997;48.448;8.924;2023-05-07T04:35:19;13.40;99.90
1992;DHT22;997;48.448;8.924;2023-05-07T04:55:59;13.20;99.90
1992;DHT22;997;48.448;8.924;2023-05-07T04:58:24;13.20;99.90
1992;DHT22;997;48.448;8.924;2023-05-07T05:00:50;13.20;99.90
1992;DHT22;997;48.448;8.924;2023-05-07T05:03:16;13.10;99.90
1992;DHT22;997;48.448;8.924;2023-05-07T05:05:42;13.10;99.90
1992;DHT22;997;48.448;8.924;2023-05-07T05:08:07;13.10;99.90
1992;DHT22;997;48.448;8.924;2023-05-07T05:10:33;13.10;99.90
1992;DHT22;997;48.448;8.924;2023-05-07T05:12:59;13.00;99.90
1992;DHT22;997;48.448;8.924;2023-05-07T05:20:34;13.20;99.90
1992;DHT22;997;48.448;8.924;2023-05-07T05:23:00;13.30;99.90
1992;DHT22;997;48.448;8.924;2023-05-07T05:25:26;13.30;99.90
1992;DHT22;997;48.448;8.924;2023-05-07T05:27:52;13.40;99.90
1992;DHT22;997;48.448;8.924;2023-05-07T05:30:18;13.40;99.90
1992;DHT22;997;48.448;8.924;2023-05-07T05:32:44;13.40;99.90
1992;DHT22;997;48.448;8.924;2023-05-07T05:35:09;13.50;99.90
1992;DHT22;997;48.448;8.924;2023-05-07T05:37:35;13.50;99.90
1992;DHT22;997;48.448;8.924;2023-05-07T05:40:02;13.60;99.90
1992;DHT22;997;48.448;8.924;2023-05-07T05:42:27;13.70;99.90
1992;DHT22;997;48.448;8.924;2023-05-07T05:44:53;13.90;99.90
1992;DHT22;997;48.448;8.924;2023-05-07T05:49:54;14.10;99.90
1992;DHT22;997;48.448;8.924;2023-05-07T05:52:20;14.20;99.90
1992;DHT22;997;48.448;8.924;2023-05-07T09:31:10;20.40;99.90
1992;DHT22;997;48.448;8.924;2023-05-07T09:33:37;20.50;99.90
1992;DHT22;997;48.448;8.924;2023-05-07T09:36:08;20.50;99.90
1992;DHT22;997;48.448;8.924;2023-05-07T09:38:35;20.50;99.90
1992;DHT22;997;48.448;8.924;2023-05-07T09:43:32;20.70;99.90
1992;DHT22;997;48.448;8.924;2023-05-07T09:46:06;20.60;99.90
1992;DHT22;997;48.448;8.924;2023-05-07T09:48:36;20.70;99.90
1992;DHT22;997;48.448;8.924;2023-05-07T09:51:02;20.70;99.90
1992;DHT22;997;48.448;8.924;2023-05-07T09:53:30;20.90;99.90
1992;DHT22;997;48.448;8.924;2023-05-07T09:55:57;21.00;99.90
1992;DHT22;997;48.448;8.924;2023-05-07T09:58:23;21.30;99.90
1992;DHT22;997;48.448;8.924;2023-05-07T10:00:51;21.40;99.90
1992;DHT22;997;48.448;8.924;2023-05-07T10:03:19;21.40;99.90
1992;DHT22;997;48.448;8.924;2023-05-07T10:05:46;21.40;99.90
1992;DHT22;997;48.448;8.924;2023-05-07T10:08:13;21.70;99.90
1992;DHT22;997;48.448;8.924;2023-05-07T10:10:39;21.90;99.90
1992;DHT22;997;48.448;8.924;2023-05-07T10:13:06;22.20;99.90
1992;DHT22;997;48.448;8.924;2023-05-07T10:15:36;22.30;99.90
1992;DHT22;997;48.448;8.924;2023-05-07T10:18:03;22.30;99.90
1992;DHT22;997;48.448;8.924;2023-05-07T10:20:33;22.40;99.90
1992;DHT22;997;48.448;8.924;2023-05-07T10:22:59;22.40;99.90
1992;DHT22;997;48.448;8.924;2023-05-07T10:25:28;22.50;99.90
1992;DHT22;997;48.448;8.924;2023-05-07T10:27:58;22.60;99.90
1992;DHT22;997;48.448;8.924;2023-05-07T10:33:17;23.10;99.90
1992;DHT22;997;48.448;8.924;2023-05-07T10:35:46;23.20;99.90
1992;DHT22;997;48.448;8.924;2023-05-07T10:38:12;23.20;99.90
1992;DHT22;997;48.448;8.924;2023-05-07T10:40:38;23.30;99.90
1992;DHT22;997;48.448;8.924;2023-05-07T10:43:04;23.50;99.90
1992;DHT22;997;48.448;8.924;2023-05-07T10:45:31;23.60;99.90
1992;DHT22;997;48.448;8.924;2023-05-07T10:48:11;23.80;99.90
1992;DHT22;997;48.448;8.924;2023-05-07T10:50:46;23.90;99.90
1992;DHT22;997;48.448;8.924;2023-05-07T10:55:45;24.30;99.90
1992;DHT22;997;48.448;8.924;2023-05-07T10:58:27;24.20;99.90
1992;DHT22;997;48.448;8.924;2023-05-07T11:00:58;24.10;99.90
1992;DHT22;997;48.448;8.924;2023-05-07T11:03:25;24.10;99.90
1992;DHT22;997;48.448;8.924;2023-05-07T11:06:10;23.90;99.90
1992;DHT22;997;48.448;8.924;2023-05-07T11:08:56;24.10;99.90
1992;DHT22;997;48.448;8.924;2023-05-07T11:11:45;24.10;99.90
1992;DHT22;997;48.448;8.924;2023-05-07T11:14:14;24.20;99.90
1992;DHT22;997;48.448;8.924;2023-05-07T11:16:41;24.30;99.90
1992;DHT22;997;48.448;8.924;2023-05-07T11:19:07;24.20;99.90
1992;DHT22;997;48.448;8.924;2023-05-07T11:24:00;24.00;99.90
1992;DHT22;997;48.448;8.924;2023-05-07T11:26:29;24.10;99.90
1992;DHT22;997;48.448;8.924;2023-05-07T11:28:55;24.00;99.90
1992;DHT22;997;48.448;8.924;2023-05-07T11:31:24;24.10;99.90
1992;DHT22;997;48.448;8.924;2023-05-07T11:33:52;24.10;99.90
1992;DHT22;997;48.448;8.924;2023-05-07T11:36:18;24.00;99.90
1992;DHT22;997;48.448;8.924;2023-05-07T11:38:46;23.80;99.90
1992;DHT22;997;48.448;8.924;2023-05-07T11:41:11;23.70;99.90
1992;DHT22;997;48.448;8.924;2023-05-07T11:43:37;23.60;99.90
1992;DHT22;997;48.448;8.924;2023-05-07T11:46:08;23.60;99.90
1992;DHT22;997;48.448;8.924;2023-05-07T11:48:34;23.30;99.90
1992;DHT22;997;48.448;8.924;2023-05-07T11:51:04;23.00;99.90
1992;DHT22;997;48.448;8.924;2023-05-07T11:56:13;22.10;99.90
1992;DHT22;997;48.448;8.924;2023-05-07T11:58:41;21.70;99.90
1992;DHT22;997;48.448;8.924;2023-05-07T12:01:08;21.40;99.90
1992;DHT22;997;48.448;8.924;2023-05-07T12:03:41;21.10;99.90
1992;DHT22;997;48.448;8.924;2023-05-07T12:06:15;20.90;99.90
1992;DHT22;997;48.448;8.924;2023-05-07T12:08:42;20.70;99.90
1992;DHT22;997;48.448;8.924;2023-05-07T12:11:10;20.60;99.90
1992;DHT22;997;48.448;8.924;2023-05-07T12:13:38;20.40;99.90
1992;DHT22;997;48.448;8.924;2023-05-07T12:16:04;20.30;99.90
1992;DHT22;997;48.448;8.924;2023-05-07T12:18:30;20.50;99.90
1992;DHT22;997;48.448;8.924;2023-05-07T12:20:57;20.50;99.90
1992;DHT22;997;48.448;8.924;2023-05-07T12:23:24;20.60;99.90
1992;DHT22;997;48.448;8.924;2023-05-07T12:25:50;20.80;99.90
1992;DHT22;997;48.448;8.924;2023-05-07T12:28:17;20.80;99.90
1992;DHT22;997;48.448;8.924;2023-05-07T12:30:44;20.80;99.90
1992;DHT22;997;48.448;8.924;2023-05-07T12:33:10;20.80;99.90
1992;DHT22;997;48.448;8.924;2023-05-07T12:35:40;20.30;99.90
1992;DHT22;997;48.448;8.924;2023-05-07T12:38:14;19.40;99.90
1992;DHT22;997;48.448;8.924;2023-05-07T12:40:54;18.80;99.90
1992;DHT22;997;48.448;8.924;2023-05-07T12:43:21;18.40;99.90
1992;DHT22;997;48.448;8.924;2023-05-07T12:45:49;17.90;99.90
1992;DHT22;997;48.448;8.924;2023-05-07T12:48:16;17.60;99.90
1992;DHT22;997;48.448;8.924;2023-05-07T12:50:42;17.50;99.90
1992;DHT22;997;48.448;8.924;2023-05-07T12:53:10;17.40;99.90
1992;DHT22;997;48.448;8.924;2023-05-07T12:55:45;17.20;99.90
1992;DHT22;997;48.448;8.924;2023-05-07T12:58:27;17.20;99.90
1992;DHT22;997;48.448;8.924;2023-05-07T13:00:55;16.90;99.90
1992;DHT22;997;48.448;8.924;2023-05-07T13:03:26;16.70;99.90
1992;DHT22;997;48.448;8.924;2023-05-07T13:05:52;16.60;99.90
1992;DHT22;997;48.448;8.924;2023-05-07T13:08:33;16.50;99.90
1992;DHT22;997;48.448;8.924;2023-05-07T13:11:01;16.60;99.90
1992;DHT22;997;48.448;8.924;2023-05-07T13:13:29;16.60;99.90
1992;DHT22;997;48.448;8.924;2023-05-07T13:15:56;16.60;99.90
1992;DHT22;997;48.448;8.924;2023-05-07T13:18:32;16.60;99.90
1992;DHT22;997;48.448;8.924;2023-05-07T13:21:03;16.80;99.90
1992;DHT22;997;48.448;8.924;2023-05-07T13:23:52;16.90;99.90
1992;DHT22;997;48.448;8.924;2023-05-07T13:26:35;16.70;99.90
1992;DHT22;997;48.448;8.924;2023-05-07T13:29:22;16.60;99.90
1992;DHT22;997;48.448;8.924;2023-05-07T13:34:47;16.70;99.90
1992;DHT22;997;48.448;8.924;2023-05-07T13:37:15;17.00;99.90
1992;DHT22;997;48.448;8.924;2023-05-07T13:39:43;17.00;99.90
1992;DHT22;997;48.448;8.924;2023-05-07T13:42:10;16.90;99.90
1992;DHT22;997;48.448;8.924;2023-05-07T13:44:36;17.00;99.90
1992;DHT22;997;48.448;8.924;2023-05-07T13:47:04;16.90;99.90
1992;DHT22;997;48.448;8.924;2023-05-07T13:49:30;16.90;99.90
1992;DHT22;997;48.448;8.924;2023-05-07T13:51:56;16.80;99.90
1992;DHT22;997;48.448;8.924;2023-05-07T13:54:22;16.90;99.90
1992;DHT22;997;48.448;8.924;2023-05-07T13:56:47;16.90;99.90
1992;DHT22;997;48.448;8.924;2023-05-07T13:59:13;16.80;99.90
1992;DHT22;997;48.448;8.924;2023-05-07T14:01:40;16.70;99.90
1992;DHT22;997;48.448;8.924;2023-05-07T14:04:06;16.50;99.90
1992;DHT22;997;48.448;8.924;2023-05-07T14:06:31;16.40;99.90
1992;DHT22;997;48.448;8.924;2023-05-07T14:08:57;16.40;99.90
1992;DHT22;997;48.448;8.924;2023-05-07T14:11:23;16.30;99.90
1992;DHT22;997;48.448;8.924;2023-05-07T14:13:49;16.20;99.90
1992;DHT22;997;48.448;8.924;2023-05-07T14:16:15;16.20;99.90
1992;DHT22;997;48.448;8.924;2023-05-07T14:18:40;16.20;99.90
1992;DHT22;997;48.448;8.924;2023-05-07T14:21:06;16.20;99.90
1992;DHT22;997;48.448;8.924;2023-05-07T14:23:32;16.10;99.90
1992;DHT22;997;48.448;8.924;2023-05-07T14:25:58;16.10;99.90
1992;DHT22;997;48.448;8.924;2023-05-07T14:28:24;16.20;99.90
1992;DHT22;997;48.448;8.924;2023-05-07T14:30:50;16.30;99.90
1992;DHT22;997;48.448;8.924;2023-05-07T14:33:15;16.50;99.90
1992;DHT22;997;48.448;8.924;2023-05-07T14:35:41;16.70;99.90
1992;DHT22;997;48.448;8.924;2023-05-07T14:38:10;16.80;99.90
1992;DHT22;997;48.448;8.924;2023-05-07T14:40:36;17.00;99.90
1992;DHT22;997;48.448;8.924;2023-05-07T14:43:03;17.30;99.90
1992;DHT22;997;48.448;8.924;2023-05-07T14:45:29;17.30;99.90
1992;DHT22;997;48.448;8.924;2023-05-07T14:47:54;17.50;99.90
1992;DHT22;997;48.448;8.924;2023-05-07T14:50:20;17.50;99.90
1992;DHT22;997;48.448;8.924;2023-05-07T14:52:46;17.70;99.90
1992;DHT22;997;48.448;8.924;2023-05-07T14:55:12;17.80;99.90
1992;DHT22;997;48.448;8.924;2023-05-07T14:57:38;18.00;99.90
1992;DHT22;997;48.448;8.924;2023-05-07T15:00:04;18.30;99.90
1992;DHT22;997;48.448;8.924;2023-05-07T15:02:30;18.50;99.90
1992;DHT22;997;48.448;8.924;2023-05-07T15:04:56;18.90;99.90
1992;DHT22;997;48.448;8.924;2023-05-07T15:07:22;19.20;99.90
1992;DHT22;997;48.448;8.924;2023-05-07T15:09:54;19.70;99.90
1992;DHT22;997;48.448;8.924;2023-05-07T15:12:20;20.10;99.90
1992;DHT22;997;48.448;8.924;2023-05-07T15:14:45;20.40;99.90
1992;DHT22;997;48.448;8.924;2023-05-07T15:17:11;20.50;99.90
1992;DHT22;997;48.448;8.924;2023-05-07T15:19:37;20.70;99.90
1992;DHT22;997;48.448;8.924;2023-05-07T15:22:03;20.80;99.90
1992;DHT22;997;48.448;8.924;2023-05-07T15:24:29;20.80;99.90
1992;DHT22;997;48.448;8.924;2023-05-07T15:26:55;20.80;99.90
1992;DHT22;997;48.448;8.924;2023-05-07T15:29:21;20.70;99.90
1992;DHT22;997;48.448;8.924;2023-05-07T15:31:47;20.50;99.90
1992;DHT22;997;48.448;8.924;2023-05-07T15:34:13;20.40;99.90
1992;DHT22;997;48.448;8.924;2023-05-07T15:36:40;20.30;99.90
1992;DHT22;997;48.448;8.924;2023-05-07T15:39:06;20.10;99.90
1992;DHT22;997;48.448;8.924;2023-05-07T15:41:32;20.00;99.90
1992;DHT22;997;48.448;8.924;2023-05-07T15:43:57;19.80;99.90
1992;DHT22;997;48.448;8.924;2023-05-07T15:46:24;19.70;99.90
1992;DHT22;997;48.448;8.924;2023-05-07T15:48:51;19.60;99.90
1992;DHT22;997;48.448;8.924;2023-05-07T15:51:17;19.40;99.90
1992;DHT22;997;48.448;8.924;2023-05-07T15:53:43;19.30;99.90
1992;DHT22;997;48.448;8.924;2023-05-07T15:56:09;19.30;99.90
1992;DHT22;997;48.448;8.924;2023-05-07T15:58:35;19.30;99.90
1992;DHT22;997;48.448;8.924;2023-05-07T16:01:01;19.30;99.90
1992;DHT22;997;48.448;8.924;2023-05-07T16:03:28;19.30;99.90
1992;DHT22;997;48.448;8.924;2023-05-07T16:05:54;19.20;99.90
1992;DHT22;997;48.448;8.924;2023-05-07T16:08:23;19.20;99.90
1992;DHT22;997;48.448;8.924;2023-05-07T16:10:49;19.20;99.90
1992;DHT22;997;48.448;8.924;2023-05-07T16:13:14;19.10;99.90
1992;DHT22;997;48.448;8.924;2023-05-07T16:15:44;19.00;99.90
1992;DHT22;997;48.448;8.924;2023-05-07T16:18:09;19.00;99.90
1992;DHT22;997;48.448;8.924;2023-05-07T16:20:36;19.00;99.90
1992;DHT22;997;48.448;8.924;2023-05-07T16:23:02;19.00;99.90
1992;DHT22;997;48.448;8.924;2023-05-07T16:25:28;19.00;99.90
1992;DHT22;997;48.448;8.924;2023-05-07T16:27:54;19.00;99.90
1992;DHT22;997;48.448;8.924;2023-05-07T16:30:20;19.00;99.90
1992;DHT22;997;48.448;8.924;2023-05-07T16:32:46;18.90;99.90
1992;DHT22;997;48.448;8.924;2023-05-07T16:35:11;18.80;99.90
1992;DHT22;997;48.448;8.924;2023-05-07T16:37:39;18.90;99.90
1992;DHT22;997;48.448;8.924;2023-05-07T16:40:06;18.90;99.90
1992;DHT22;997;48.448;8.924;2023-05-07T16:42:35;19.00;99.90
1992;DHT22;997;48.448;8.924;2023-05-07T16:45:02;18.90;99.90
1992;DHT22;997;48.448;8.924;2023-05-07T16:47:48;19.00;99.90
1992;DHT22;997;48.448;8.924;2023-05-07T16:50:14;19.00;99.90
1992;DHT22;997;48.448;8.924;2023-05-07T16:52:40;19.00;99.90
1992;DHT22;997;48.448;8.924;2023-05-07T16:55:06;18.90;99.90
1992;DHT22;997;48.448;8.924;2023-05-07T16:57:31;18.80;99.90
1992;DHT22;997;48.448;8.924;2023-05-07T16:59:57;18.80;99.90
1992;DHT22;997;48.448;8.924;2023-05-07T17:02:24;18.80;99.90
1992;DHT22;997;48.448;8.924;2023-05-07T17:04:49;18.80;99.90
1992;DHT22;997;48.448;8.924;2023-05-07T17:07:15;18.80;99.90
1992;DHT22;997;48.448;8.924;2023-05-07T17:09:41;18.80;99.90
1992;DHT22;997;48.448;8.924;2023-05-07T17:12:07;18.70;99.90
1992;DHT22;997;48.448;8.924;2023-05-07T17:14:32;18.60;99.90
1992;DHT22;997;48.448;8.924;2023-05-07T17:16:58;18.70;99.90
1992;DHT22;997;48.448;8.924;2023-05-07T17:19:24;18.70;99.90
1992;DHT22;997;48.448;8.924;2023-05-07T17:21:49;18.70;99.90
1992;DHT22;997;48.448;8.924;2023-05-07T17:24:16;18.80;99.90
1992;DHT22;997;48.448;8.924;2023-05-07T17:26:42;18.90;99.90
1992;DHT22;997;48.448;8.924;2023-05-07T17:29:08;18.90;99.90
1992;DHT22;997;48.448;8.924;2023-05-07T17:31:34;18.90;99.90
1992;DHT22;997;48.448;8.924;2023-05-07T17:34:00;18.90;99.90
1992;DHT22;997;48.448;8.924;2023-05-07T17:36:25;18.90;99.90
1992;DHT22;997;48.448;8.924;2023-05-07T17:38:51;18.70;99.90
1992;DHT22;997;48.448;8.924;2023-05-07T17:41:17;18.70;99.90
1992;DHT22;997;48.448;8.924;2023-05-07T17:43:43;18.70;99.90
1992;DHT22;997;48.448;8.924;2023-05-07T17:46:08;18.60;99.90
1992;DHT22;997;48.448;8.924;2023-05-07T17:48:34;18.50;99.90
1992;DHT22;997;48.448;8.924;2023-05-07T17:51:03;18.50;99.90
1992;DHT22;997;48.448;8.924;2023-05-07T17:53:29;18.40;99.90
1992;DHT22;997;48.448;8.924;2023-05-07T17:55:55;18.40;99.90
1992;DHT22;997;48.448;8.924;2023-05-07T17:58:21;18.30;99.90
1992;DHT22;997;48.448;8.924;2023-05-07T18:00:49;18.30;99.90
1992;DHT22;997;48.448;8.924;2023-05-07T18:03:15;18.20;99.90
1992;DHT22;997;48.448;8.924;2023-05-07T18:05:41;18.10;99.90
1992;DHT22;997;48.448;8.924;2023-05-07T18:08:06;18.10;99.90
1992;DHT22;997;48.448;8.924;2023-05-07T18:10:32;18.00;99.90
1992;DHT22;997;48.448;8.924;2023-05-07T18:12:58;18.00;99.90
1992;DHT22;997;48.448;8.924;2023-05-07T18:15:23;18.00;99.90
1992;DHT22;997;48.448;8.924;2023-05-07T18:17:49;18.00;99.90
1992;DHT22;997;48.448;8.924;2023-05-07T18:20:15;18.00;99.90
1992;DHT22;997;48.448;8.924;2023-05-07T18:22:41;18.00;99.90
1992;DHT22;997;48.448;8.924;2023-05-07T18:25:07;18.00;99.90
1992;DHT22;997;48.448;8.924;2023-05-07T18:27:33;18.00;99.90
1992;DHT22;997;48.448;8.924;2023-05-07T18:29:58;17.90;99.90
1992;DHT22;997;48.448;8.924;2023-05-07T18:32:24;18.00;99.90
1992;DHT22;997;48.448;8.924;2023-05-07T18:34:50;18.00;99.90
1992;DHT22;997;48.448;8.924;2023-05-07T18:37:15;18.00;99.90
1992;DHT22;997;48.448;8.924;2023-05-07T18:39:41;17.90;99.90
1992;DHT22;997;48.448;8.924;2023-05-07T18:42:11;17.90;99.90
1992;DHT22;997;48.448;8.924;2023-05-07T18:44:37;17.90;99.90
1992;DHT22;997;48.448;8.924;2023-05-07T18:47:06;17.80;99.90
1992;DHT22;997;48.448;8.924;2023-05-07T18:49:33;17.60;99.90
1992;DHT22;997;48.448;8.924;2023-05-07T18:51:59;17.50;99.90
1992;DHT22;997;48.448;8.924;2023-05-07T18:54:25;17.30;99.90
1992;DHT22;997;48.448;8.924;2023-05-07T18:56:51;17.10;99.90
1992;DHT22;997;48.448;8.924;2023-05-07T18:59:16;17.00;99.90
1992;DHT22;997;48.448;8.924;2023-05-07T19:01:42;16.90;99.90
1992;DHT22;997;48.448;8.924;2023-05-07T19:04:08;16.80;99.90
1992;DHT22;997;48.448;8.924;2023-05-07T19:06:34;16.80;99.90
1992;DHT22;997;48.448;8.924;2023-05-07T19:09:00;16.80;99.90
1992;DHT22;997;48.448;8.924;2023-05-07T19:11:25;16.90;99.90
1992;DHT22;997;48.448;8.924;2023-05-07T19:13:51;17.00;99.90
1992;DHT22;997;48.448;8.924;2023-05-07T19:16:17;16.90;99.90
1992;DHT22;997;48.448;8.924;2023-05-07T19:18:42;16.90;99.90
1992;DHT22;997;48.448;8.924;2023-05-07T19:21:08;16.80;99.90
1992;DHT22;997;48.448;8.924;2023-05-07T19:23:34;16.70;99.90
1992;DHT22;997;48.448;8.924;2023-05-07T19:26:07;16.70;99.90
1992;DHT22;997;48.448;8.924;2023-05-07T19:28:33;16.70;99.90
1992;DHT22;997;48.448;8.924;2023-05-07T19:30:59;16.70;99.90
1992;DHT22;997;48.448;8.924;2023-05-07T19:33:25;16.80;99.90
1992;DHT22;997;48.448;8.924;2023-05-07T19:35:50;17.00;99.90
1992;DHT22;997;48.448;8.924;2023-05-07T19:38:18;17.10;99.90
1992;DHT22;997;48.448;8.924;2023-05-07T19:40:44;17.20;99.90
1992;DHT22;997;48.448;8.924;2023-05-07T19:43:10;17.20;99.90
1992;DHT22;997;48.448;8.924;2023-05-07T19:45:35;17.30;99.90
1992;DHT22;997;48.448;8.924;2023-05-07T19:48:02;17.40;99.90
1992;DHT22;997;48.448;8.924;2023-05-07T19:50:27;17.50;99.90
1992;DHT22;997;48.448;8.924;2023-05-07T19:52:53;17.50;99.90
1992;DHT22;997;48.448;8.924;2023-05-07T19:55:19;17.50;99.90
1992;DHT22;997;48.448;8.924;2023-05-07T19:57:44;17.50;99.90
1992;DHT22;997;48.448;8.924;2023-05-07T20:00:14;17.60;99.90
1992;DHT22;997;48.448;8.924;2023-05-07T20:02:40;17.60;99.90
1992;DHT22;997;48.448;8.924;2023-05-07T20:05:06;17.60;99.90
1992;DHT22;997;48.448;8.924;2023-05-07T20:07:32;17.60;99.90
1992;DHT22;997;48.448;8.924;2023-05-07T20:09:57;17.60;99.90
1992;DHT22;997;48.448;8.924;2023-05-07T20:12:23;17.60;99.90
1992;DHT22;997;48.448;8.924;2023-05-07T20:14:49;17.70;99.90
1992;DHT22;997;48.448;8.924;2023-05-07T20:17:14;17.70;99.90
1992;DHT22;997;48.448;8.924;2023-05-07T20:19:40;17.70;99.90
1992;DHT22;997;48.448;8.924;2023-05-07T20:22:06;17.70;99.90
1992;DHT22;997;48.448;8.924;2023-05-07T20:24:36;17.70;99.90
1992;DHT22;997;48.448;8.924;2023-05-07T20:27:03;17.70;99.90
1992;DHT22;997;48.448;8.924;2023-05-07T20:29:32;17.70;99.90
1992;DHT22;997;48.448;8.924;2023-05-07T20:31:58;17.80;99.90
1992;DHT22;997;48.448;8.924;2023-05-07T20:34:23;17.80;99.90
1992;DHT22;997;48.448;8.924;2023-05-07T20:36:49;17.70;99.90
1992;DHT22;997;48.448;8.924;2023-05-07T20:39:15;17.70;99.90
1992;DHT22;997;48.448;8.924;2023-05-07T20:41:41;17.70;99.90
1992;DHT22;997;48.448;8.924;2023-05-07T20:44:09;17.70;99.90
1992;DHT22;997;48.448;8.924;2023-05-07T20:46:35;17.70;99.90
1992;DHT22;997;48.448;8.924;2023-05-07T20:49:02;17.60;99.90
1992;DHT22;997;48.448;8.924;2023-05-07T20:51:28;17.50;99.90
1992;DHT22;997;48.448;8.924;2023-05-07T20:53:53;17.50;99.90
1992;DHT22;997;48.448;8.924;2023-05-07T20:56:19;17.40;99.90
1992;DHT22;997;48.448;8.924;2023-05-07T20:58:45;17.40;99.90
1992;DHT22;997;48.448;8.924;2023-05-07T21:01:11;17.40;99.90
1992;DHT22;997;48.448;8.924;2023-05-07T21:03:37;17.20;99.90
1992;DHT22;997;48.448;8.924;2023-05-07T21:06:03;17.20;99.90
1992;DHT22;997;48.448;8.924;2023-05-07T21:08:29;17.20;99.90
1992;DHT22;997;48.448;8.924;2023-05-07T21:10:55;17.10;99.90
1992;DHT22;997;48.448;8.924;2023-05-07T21:13:21;17.10;99.90
1992;DHT22;997;48.448;8.924;2023-05-07T21:15:47;17.20;99.90
1992;DHT22;997;48.448;8.924;2023-05-07T21:18:13;17.10;99.90
1992;DHT22;997;48.448;8.924;2023-05-07T21:20:39;17.00;99.90
1992;DHT22;997;48.448;8.924;2023-05-07T21:23:05;16.80;99.90
1992;DHT22;997;48.448;8.924;2023-05-07T21:25:30;16.70;99.90
1992;DHT22;997;48.448;8.924;2023-05-07T21:27:56;16.70;99.90
